createdAt,value
2018-12-26T00:01:31.546Z,2.97
2018-12-26T00:03:59.950Z,3.37
2018-12-26T00:06:28.410Z,3.40
2018-12-26T00:08:56.839Z,3.40
2018-12-26T00:11:25.298Z,3.00
2018-12-26T00:13:53.748Z,3.23
2018-12-26T00:16:22.201Z,3.47
2018-12-26T00:18:50.637Z,3.43
2018-12-26T00:21:19.097Z,3.20
2018-12-26T00:23:47.579Z,2.97
2018-12-26T00:26:15.980Z,3.20
2018-12-26T00:28:44.445Z,3.60
2018-12-26T00:31:14.532Z,3.33
2018-12-26T00:33:43.085Z,4.03
2018-12-26T00:36:11.533Z,3.30
2018-12-26T00:38:40.026Z,3.60
2018-12-26T00:41:08.475Z,3.40
2018-12-26T00:43:36.927Z,3.30
2018-12-26T00:46:05.366Z,3.43
2018-12-26T00:48:33.820Z,3.73
2018-12-26T00:51:02.258Z,3.53
2018-12-26T00:53:30.721Z,3.47
2018-12-26T00:55:59.229Z,3.30
2018-12-26T00:58:27.681Z,3.67
2018-12-26T01:00:56.123Z,3.63
2018-12-26T01:03:24.578Z,4.07
2018-12-26T01:05:53.015Z,3.13
2018-12-26T01:08:21.480Z,4.03
2018-12-26T01:10:49.923Z,4.47
2018-12-26T01:13:18.375Z,3.67
2018-12-26T01:15:47.220Z,3.50
2018-12-26T01:18:15.647Z,4.20
2018-12-26T01:20:44.115Z,3.87
2018-12-26T01:23:12.552Z,4.33
2018-12-26T01:25:40.998Z,4.43
2018-12-26T01:28:09.418Z,3.73
2018-12-26T01:30:37.879Z,3.27
2018-12-26T01:33:06.342Z,3.87
2018-12-26T01:35:34.774Z,4.40
2018-12-26T01:38:03.219Z,4.03
2018-12-26T01:40:31.668Z,4.30
2018-12-26T01:43:00.125Z,3.80
2018-12-26T01:45:28.584Z,4.57
2018-12-26T01:47:57.020Z,3.90
2018-12-26T01:50:25.464Z,4.00
2018-12-26T01:52:53.911Z,3.80
2018-12-26T01:55:22.339Z,4.53
2018-12-26T01:57:50.947Z,4.27
2018-12-26T02:00:19.387Z,4.10
2018-12-26T02:02:47.842Z,4.87
2018-12-26T02:05:16.292Z,4.10
2018-12-26T02:07:44.743Z,3.90
2018-12-26T02:10:13.203Z,4.63
2018-12-26T02:12:41.668Z,3.83
2018-12-26T02:15:10.115Z,3.53
2018-12-26T02:17:38.559Z,4.37
2018-12-26T02:20:08.147Z,3.70
2018-12-26T02:22:36.597Z,3.53
2018-12-26T02:25:05.682Z,4.37
2018-12-26T02:27:34.124Z,3.97
2018-12-26T02:30:02.583Z,4.53
2018-12-26T02:32:31.026Z,3.90
2018-12-26T02:34:59.463Z,4.43
2018-12-26T02:37:27.899Z,3.80
2018-12-26T02:39:56.410Z,4.57
2018-12-26T02:42:24.820Z,3.80
2018-12-26T02:44:53.266Z,4.30
2018-12-26T02:47:21.715Z,4.23
2018-12-26T02:49:50.144Z,4.37
2018-12-26T02:52:18.589Z,4.57
2018-12-26T02:54:47.020Z,4.40
2018-12-26T02:57:15.479Z,4.83
2018-12-26T02:59:43.925Z,4.53
2018-12-26T03:02:12.386Z,4.30
2018-12-26T03:04:40.867Z,4.80
2018-12-26T03:07:09.254Z,4.20
2018-12-26T03:09:37.687Z,5.17
2018-12-26T03:12:06.147Z,5.67
2018-12-26T03:14:34.643Z,5.40
2018-12-26T03:17:03.125Z,5.27
2018-12-26T03:19:31.556Z,5.37
2018-12-26T03:22:00.019Z,5.83
2018-12-26T03:24:28.483Z,6.67
2018-12-26T03:26:56.938Z,6.47
2018-12-26T03:29:25.369Z,8.20
2018-12-26T03:31:53.837Z,7.67
2018-12-26T03:34:22.279Z,7.37
2018-12-26T03:36:50.744Z,8.13
2018-12-26T03:39:19.178Z,8.03
2018-12-26T03:41:47.611Z,8.03
2018-12-26T03:44:16.067Z,9.43
2018-12-26T03:46:44.838Z,6.97
2018-12-26T03:49:13.306Z,10.30
2018-12-26T03:51:41.768Z,9.73
2018-12-26T03:54:10.220Z,9.53
2018-12-26T03:56:38.656Z,8.90
2018-12-26T03:59:07.102Z,9.43
2018-12-26T04:01:35.540Z,12.47
2018-12-26T04:04:04.050Z,10.70
2018-12-26T04:06:32.664Z,10.90
2018-12-26T04:09:01.199Z,10.50
2018-12-26T04:11:30.920Z,10.70
2018-12-26T04:13:59.363Z,10.13
2018-12-26T04:16:28.906Z,12.10
2018-12-26T04:18:57.444Z,12.40
2018-12-26T04:21:25.969Z,11.73
2018-12-26T04:23:54.584Z,11.20
2018-12-26T04:26:23.031Z,11.53
2018-12-26T04:28:51.494Z,12.43
2018-12-26T04:31:19.934Z,11.97
2018-12-26T04:33:48.387Z,12.30
2018-12-26T04:36:16.851Z,12.57
2018-12-26T04:38:45.294Z,11.77
2018-12-26T04:41:13.752Z,11.37
2018-12-26T04:43:42.205Z,12.67
2018-12-26T04:46:10.665Z,12.80
2018-12-26T04:48:39.099Z,12.03
2018-12-26T04:51:07.556Z,12.43
2018-12-26T04:53:36.661Z,12.37
2018-12-26T04:56:05.136Z,11.60
2018-12-26T04:58:33.573Z,11.80
2018-12-26T05:01:02.032Z,11.73
2018-12-26T05:03:30.566Z,11.57
2018-12-26T05:05:59.035Z,12.67
2018-12-26T05:08:27.535Z,12.10
2018-12-26T05:10:55.985Z,12.73
2018-12-26T05:13:24.461Z,13.27
2018-12-26T05:15:52.905Z,12.77
2018-12-26T05:18:21.368Z,12.93
2018-12-26T05:20:49.818Z,13.60
2018-12-26T05:23:18.274Z,13.73
2018-12-26T05:25:46.731Z,13.50
2018-12-26T05:28:15.200Z,13.37
2018-12-26T05:30:43.641Z,14.03
2018-12-26T05:33:12.097Z,15.27
2018-12-26T05:35:40.545Z,16.00
2018-12-26T05:38:09.043Z,14.60
2018-12-26T05:40:37.533Z,14.80
2018-12-26T05:43:05.989Z,13.80
2018-12-26T05:45:34.453Z,15.67
2018-12-26T05:48:02.887Z,14.73
2018-12-26T05:50:31.345Z,14.17
2018-12-26T05:52:59.791Z,15.47
2018-12-26T05:55:28.269Z,15.23
2018-12-26T05:57:56.717Z,16.03
2018-12-26T06:00:25.194Z,16.03
2018-12-26T06:02:53.647Z,15.73
2018-12-26T06:05:22.114Z,15.83
2018-12-26T06:07:50.552Z,15.57
2018-12-26T06:10:19.002Z,15.80
2018-12-26T06:12:47.442Z,15.70
2018-12-26T06:15:15.897Z,15.53
2018-12-26T06:17:44.343Z,15.20
2018-12-26T06:20:12.853Z,14.00
2018-12-26T06:22:41.309Z,15.37
2018-12-26T06:25:09.773Z,16.07
2018-12-26T06:27:38.214Z,15.47
2018-12-26T06:30:07.348Z,15.63
2018-12-26T06:32:35.820Z,15.50
2018-12-26T06:35:04.440Z,15.57
2018-12-26T06:37:32.896Z,15.93
2018-12-26T06:40:01.340Z,16.40
2018-12-26T06:42:29.793Z,16.00
2018-12-26T06:44:58.247Z,15.83
2018-12-26T06:47:26.800Z,15.07
2018-12-26T06:49:55.259Z,15.40
2018-12-26T06:52:23.721Z,15.20
2018-12-26T06:54:52.163Z,15.70
2018-12-26T06:57:20.637Z,15.63
2018-12-26T06:59:49.080Z,15.20
2018-12-26T07:02:17.554Z,16.20
2018-12-26T07:04:46.000Z,16.67
2018-12-26T07:07:14.467Z,15.87
2018-12-26T07:09:42.901Z,16.57
2018-12-26T07:12:11.370Z,16.23
2018-12-26T07:14:40.166Z,15.73
2018-12-26T07:17:08.634Z,16.07
2018-12-26T07:19:37.077Z,15.57
2018-12-26T07:22:05.534Z,16.90
2018-12-26T07:24:33.983Z,17.10
2018-12-26T07:27:02.438Z,15.23
2018-12-26T07:29:30.887Z,16.33
2018-12-26T07:31:59.354Z,16.33
2018-12-26T07:34:27.800Z,17.37
2018-12-26T07:36:56.254Z,16.43
2018-12-26T07:39:24.694Z,15.53
2018-12-26T07:41:53.152Z,17.00
2018-12-26T07:44:21.601Z,14.97
2018-12-26T07:46:50.064Z,15.53
2018-12-26T07:49:18.516Z,15.37
2018-12-26T07:51:47.000Z,15.77
2018-12-26T07:54:15.445Z,14.17
2018-12-26T07:56:43.888Z,15.03
2018-12-26T07:59:12.358Z,15.47
2018-12-26T08:01:40.831Z,15.47
2018-12-26T08:04:09.297Z,16.95
2018-12-26T08:06:37.872Z,16.23
2018-12-26T08:09:06.973Z,16.17
2018-12-26T08:11:35.412Z,15.30
2018-12-26T08:14:03.906Z,14.43
2018-12-26T08:16:32.333Z,14.73
2018-12-26T08:19:00.792Z,15.33
2018-12-26T08:21:29.260Z,15.33
2018-12-26T08:23:57.710Z,16.07
2018-12-26T08:26:26.152Z,15.90
2018-12-26T08:28:54.628Z,14.40
2018-12-26T08:31:23.090Z,15.13
2018-12-26T08:33:51.548Z,15.20
2018-12-26T08:36:19.988Z,15.83
2018-12-26T08:38:48.481Z,14.40
2018-12-26T08:41:18.599Z,16.37
2018-12-26T08:43:47.505Z,16.87
2018-12-26T08:46:15.988Z,14.97
2018-12-26T08:48:44.448Z,15.73
2018-12-26T08:51:12.989Z,15.60
2018-12-26T08:53:41.441Z,15.53
2018-12-26T08:56:09.909Z,13.87
2018-12-26T08:58:38.349Z,14.87
2018-12-26T09:01:06.806Z,14.47
2018-12-26T09:03:35.356Z,13.43
2018-12-26T09:06:03.787Z,14.00
2018-12-26T09:08:32.229Z,14.00
2018-12-26T09:11:00.709Z,14.10
2018-12-26T09:13:29.147Z,12.90
2018-12-26T09:15:57.631Z,13.57
2018-12-26T09:18:26.087Z,14.23
2018-12-26T09:20:54.549Z,14.47
2018-12-26T09:23:23.000Z,12.75
2018-12-26T09:25:52.927Z,12.00
2018-12-26T09:28:21.371Z,12.60
2018-12-26T09:30:49.832Z,11.77
2018-12-26T09:33:18.282Z,12.30
2018-12-26T09:35:46.747Z,11.33
2018-12-26T09:38:15.199Z,11.90
2018-12-26T09:40:43.654Z,11.00
2018-12-26T09:43:12.117Z,10.40
2018-12-26T09:45:40.583Z,10.57
2018-12-26T09:48:09.009Z,10.07
2018-12-26T09:50:37.458Z,9.33
2018-12-26T09:53:05.898Z,10.53
2018-12-26T09:55:34.388Z,9.17
2018-12-26T09:58:02.831Z,9.47
2018-12-26T10:00:31.298Z,9.03
2018-12-26T10:02:59.743Z,8.97
2018-12-26T10:05:28.198Z,9.37
2018-12-26T10:07:56.654Z,8.70
2018-12-26T10:10:25.123Z,9.30
2018-12-26T10:12:53.552Z,8.77
2018-12-26T10:15:22.009Z,9.03
2018-12-26T10:17:50.470Z,8.80
2018-12-26T10:20:18.906Z,9.03
2018-12-26T10:22:47.367Z,43.60
2018-12-26T10:25:15.809Z,9.43
2018-12-26T10:27:44.278Z,9.77
2018-12-26T10:30:12.723Z,9.70
2018-12-26T10:32:41.186Z,9.07
2018-12-26T10:35:09.631Z,10.13
2018-12-26T10:37:38.089Z,10.30
2018-12-26T10:40:07.771Z,10.20
2018-12-26T10:42:36.228Z,11.00
2018-12-26T10:45:05.223Z,10.53
2018-12-26T10:47:33.673Z,10.53
2018-12-26T10:50:02.128Z,11.50
2018-12-26T10:52:30.596Z,10.67
2018-12-26T10:54:59.043Z,10.93
2018-12-26T10:57:27.684Z,12.43
2018-12-26T10:59:56.206Z,10.97
2018-12-26T11:02:24.660Z,11.80
2018-12-26T11:04:53.111Z,11.70
2018-12-26T11:07:21.595Z,11.53
2018-12-26T11:09:50.057Z,12.43
2018-12-26T11:12:18.795Z,11.27
2018-12-26T11:14:47.241Z,11.70
2018-12-26T11:17:15.714Z,12.43
2018-12-26T11:19:45.101Z,11.47
2018-12-26T11:22:13.556Z,11.97
2018-12-26T11:24:42.015Z,13.90
2018-12-26T11:27:10.475Z,11.30
2018-12-26T11:29:38.920Z,13.67
2018-12-26T11:32:09.019Z,12.77
2018-12-26T11:34:37.495Z,12.13
2018-12-26T11:37:05.950Z,10.93
2018-12-26T11:39:34.560Z,11.60
2018-12-26T11:42:03.019Z,11.73
2018-12-26T11:44:33.800Z,11.77
2018-12-26T11:47:02.302Z,11.63
2018-12-26T11:49:30.742Z,11.47
2018-12-26T11:51:59.225Z,12.07
2018-12-26T11:54:27.758Z,11.83
2018-12-26T11:56:56.228Z,12.73
2018-12-26T11:59:27.285Z,12.53
2018-12-26T12:01:54.936Z,11.07
2018-12-26T12:04:23.426Z,13.10
2018-12-26T12:06:51.891Z,13.20
2018-12-26T12:09:20.396Z,10.30
2018-12-26T12:11:49.007Z,11.17
2018-12-26T12:14:17.564Z,11.53
2018-12-26T12:16:46.056Z,11.50
2018-12-26T12:19:16.918Z,11.43
2018-12-26T12:21:45.368Z,10.80
2018-12-26T12:24:14.154Z,10.70
2018-12-26T12:26:42.603Z,10.50
2018-12-26T12:29:11.056Z,10.83
2018-12-26T12:31:39.514Z,11.53
2018-12-26T12:34:08.149Z,11.33
2018-12-26T12:36:36.600Z,11.80
2018-12-26T12:39:06.610Z,11.00
2018-12-26T12:41:35.056Z,11.97
2018-12-26T12:44:03.684Z,11.80
2018-12-26T12:46:32.211Z,10.83
2018-12-26T12:49:00.803Z,11.23
2018-12-26T12:51:29.237Z,11.33
2018-12-26T12:53:57.718Z,11.60
2018-12-26T12:56:26.172Z,11.53
2018-12-26T12:58:54.721Z,11.07
2018-12-26T13:01:23.242Z,13.23
2018-12-26T13:03:51.722Z,62.77
2018-12-26T13:06:20.174Z,11.37
2018-12-26T13:08:48.649Z,11.50
2018-12-26T13:11:17.126Z,12.60
2018-12-26T13:13:45.632Z,12.73
2018-12-26T13:16:14.075Z,13.20
2018-12-26T13:18:42.550Z,12.77
2018-12-26T13:21:10.983Z,13.07
2018-12-26T13:23:39.441Z,12.03
2018-12-26T13:26:07.914Z,12.77
2018-12-26T13:28:36.364Z,13.47
2018-12-26T13:31:05.425Z,15.13
2018-12-26T13:33:33.938Z,15.27
2018-12-26T13:36:02.426Z,15.10
2018-12-26T13:38:30.904Z,15.23
2018-12-26T13:40:59.375Z,15.43
2018-12-26T13:43:27.833Z,17.10
2018-12-26T13:45:56.277Z,15.17
2018-12-26T13:48:24.733Z,16.30
2018-12-26T13:50:53.196Z,15.57
2018-12-26T13:53:21.634Z,16.73
2018-12-26T13:55:50.101Z,16.50
2018-12-26T13:58:18.542Z,15.40
2018-12-26T14:00:47.882Z,15.03
2018-12-26T14:03:16.352Z,14.57
2018-12-26T14:05:44.969Z,16.03
2018-12-26T14:08:13.423Z,17.17
2018-12-26T14:10:41.876Z,17.07
2018-12-26T14:13:10.331Z,13.70
2018-12-26T14:15:38.809Z,16.07
2018-12-26T14:18:07.285Z,16.30
2018-12-26T14:20:35.722Z,15.53
2018-12-26T14:23:04.180Z,17.17
2018-12-26T14:25:32.632Z,16.90
2018-12-26T14:28:01.108Z,17.07
2018-12-26T14:30:29.571Z,15.60
2018-12-26T14:32:58.091Z,16.20
2018-12-26T14:35:26.494Z,15.53
2018-12-26T14:37:54.993Z,16.73
2018-12-26T14:40:23.449Z,17.63
2018-12-26T14:42:51.895Z,14.77
2018-12-26T14:45:20.355Z,16.20
2018-12-26T14:47:48.803Z,15.07
2018-12-26T14:50:17.255Z,16.97
2018-12-26T14:52:45.724Z,14.37
2018-12-26T14:55:14.216Z,15.60
2018-12-26T14:57:42.670Z,15.27
2018-12-26T15:00:19.708Z,15.13
2018-12-26T15:02:41.309Z,15.70
2018-12-26T15:05:09.755Z,15.97
2018-12-26T15:07:38.254Z,16.57
2018-12-26T15:10:07.032Z,17.47
2018-12-26T15:12:35.505Z,16.17
2018-12-26T15:15:04.312Z,16.30
2018-12-26T15:17:32.774Z,16.97
2018-12-26T15:20:01.218Z,14.37
2018-12-26T15:22:29.702Z,16.50
2018-12-26T15:24:58.143Z,16.90
2018-12-26T15:27:26.596Z,15.43
2018-12-26T15:29:55.053Z,14.53
2018-12-26T15:32:23.509Z,16.97
2018-12-26T15:34:51.988Z,15.37
2018-12-26T15:37:20.552Z,16.03
2018-12-26T15:39:48.993Z,14.00
2018-12-26T15:42:17.639Z,17.33
2018-12-26T15:44:46.121Z,14.00
2018-12-26T15:47:14.548Z,14.93
2018-12-26T15:49:43.007Z,15.50
2018-12-26T15:52:11.517Z,15.13
2018-12-26T15:54:39.982Z,15.50
2018-12-26T15:57:08.430Z,23.90
2018-12-26T15:59:36.912Z,15.50
2018-12-26T16:02:05.362Z,15.30
2018-12-26T16:04:33.834Z,27.83
2018-12-26T16:07:02.294Z,12.67
2018-12-26T16:09:30.764Z,13.57
2018-12-26T16:11:59.209Z,15.33
2018-12-26T16:14:27.684Z,15.13
2018-12-26T16:16:56.187Z,13.20
2018-12-26T16:19:24.624Z,14.80
2018-12-26T16:21:53.058Z,14.23
2018-12-26T16:24:21.518Z,15.07
2018-12-26T16:26:49.972Z,15.10
2018-12-26T16:29:18.425Z,15.37
2018-12-26T16:31:46.862Z,16.30
2018-12-26T16:34:15.410Z,15.30
2018-12-26T16:36:43.806Z,15.53
2018-12-26T16:39:12.250Z,15.73
2018-12-26T16:41:40.746Z,16.50
2018-12-26T16:44:09.193Z,15.87
2018-12-26T16:46:37.640Z,15.47
2018-12-26T16:49:06.087Z,14.27
2018-12-26T16:51:34.570Z,16.17
2018-12-26T16:54:03.099Z,16.27
2018-12-26T16:56:31.571Z,15.43
2018-12-26T16:59:00.012Z,16.53
2018-12-26T17:01:28.486Z,14.43
2018-12-26T17:03:56.968Z,16.00
2018-12-26T17:06:25.467Z,14.87
2018-12-26T17:08:53.930Z,15.63
2018-12-26T17:11:22.380Z,14.77
2018-12-26T17:13:50.842Z,16.60
2018-12-26T17:16:19.300Z,16.23
2018-12-26T17:18:47.772Z,15.80
2018-12-26T17:21:16.239Z,15.77
2018-12-26T17:23:44.705Z,15.63
2018-12-26T17:26:13.153Z,16.57
2018-12-26T17:28:41.609Z,15.57
2018-12-26T17:31:10.070Z,15.40
2018-12-26T17:33:38.563Z,14.90
2018-12-26T17:36:06.995Z,15.60
2018-12-26T17:38:35.477Z,14.63
2018-12-26T17:41:03.988Z,17.77
2018-12-26T17:43:32.465Z,17.17
2018-12-26T17:46:00.916Z,15.73
2018-12-26T17:48:29.362Z,15.50
2018-12-26T17:50:57.889Z,16.00
2018-12-26T17:53:35.257Z,15.80
2018-12-26T17:56:09.758Z,16.63
2018-12-26T17:58:47.496Z,16.00
2018-12-26T18:01:21.988Z,17.60
2018-12-26T18:03:50.440Z,16.07
2018-12-26T18:06:18.902Z,16.33
2018-12-26T18:08:47.359Z,15.23
2018-12-26T18:11:15.819Z,15.23
2018-12-26T18:13:44.284Z,16.80
2018-12-26T18:16:12.860Z,15.00
2018-12-26T18:18:41.313Z,16.33
2018-12-26T18:21:09.814Z,15.93
2018-12-26T18:23:38.256Z,15.37
2018-12-26T18:26:06.811Z,16.23
2018-12-26T18:28:35.285Z,16.27
2018-12-26T18:31:03.751Z,16.33
2018-12-26T18:33:32.211Z,17.60
2018-12-26T18:36:00.689Z,17.63
2018-12-26T18:38:29.157Z,21.20
2018-12-26T18:40:57.674Z,19.40
2018-12-26T18:43:26.122Z,19.03
2018-12-26T18:45:54.595Z,20.67
2018-12-26T18:48:23.067Z,20.27
2018-12-26T18:50:51.532Z,24.87
2018-12-26T18:53:19.996Z,20.60
2018-12-26T18:55:48.427Z,20.57
2018-12-26T18:58:16.896Z,21.10
2018-12-26T19:00:45.339Z,22.67
2018-12-26T19:03:13.791Z,23.17
2018-12-26T19:05:42.239Z,22.63
2018-12-26T19:08:10.714Z,23.83
2018-12-26T19:10:39.179Z,23.63
2018-12-26T19:13:07.666Z,25.30
2018-12-26T19:15:36.108Z,27.00
2018-12-26T19:18:04.582Z,26.27
2018-12-26T19:20:33.026Z,28.17
2018-12-26T19:23:01.504Z,27.40
2018-12-26T19:25:29.974Z,30.30
2018-12-26T19:27:58.452Z,28.93
2018-12-26T19:30:26.896Z,28.23
2018-12-26T19:32:55.390Z,30.67
2018-12-26T19:35:23.826Z,31.10
2018-12-26T19:37:52.330Z,30.67
2018-12-26T19:40:20.783Z,31.73
2018-12-26T19:42:49.254Z,30.47
2018-12-26T19:45:17.704Z,32.60
2018-12-26T19:47:46.206Z,32.77
2018-12-26T19:50:14.673Z,32.60
2018-12-26T19:52:43.200Z,33.67
2018-12-26T19:55:11.653Z,33.00
2018-12-26T19:57:40.131Z,28.83
2018-12-26T20:00:10.832Z,32.93
2018-12-26T20:02:39.284Z,32.80
2018-12-26T20:05:07.742Z,34.63
2018-12-26T20:07:36.206Z,32.80
2018-12-26T20:10:07.312Z,32.30
2018-12-26T20:12:35.771Z,33.40
2018-12-26T20:15:04.797Z,32.17
2018-12-26T20:17:33.259Z,34.03
2018-12-26T20:20:01.721Z,33.70
2018-12-26T20:22:30.180Z,33.10
2018-12-26T20:24:58.717Z,31.30
2018-12-26T20:27:27.165Z,32.17
2018-12-26T20:29:55.637Z,31.70
2018-12-26T20:32:24.072Z,33.10
2018-12-26T20:34:52.546Z,33.30
2018-12-26T20:37:20.999Z,36.27
2018-12-26T20:39:49.480Z,33.70
2018-12-26T20:42:17.931Z,33.57
2018-12-26T20:44:46.404Z,33.73
2018-12-26T20:47:14.874Z,35.37
2018-12-26T20:49:43.335Z,33.57
2018-12-26T20:52:13.323Z,32.33
2018-12-26T20:54:41.821Z,34.00
2018-12-26T20:57:10.247Z,35.83
2018-12-26T20:59:38.732Z,32.87
2018-12-26T21:02:07.200Z,34.97
2018-12-26T21:04:35.685Z,33.70
2018-12-26T21:07:04.147Z,34.60
2018-12-26T21:09:32.603Z,35.97
2018-12-26T21:12:01.071Z,33.57
2018-12-26T21:14:29.529Z,33.90
2018-12-26T21:16:57.986Z,33.50
2018-12-26T21:19:26.454Z,35.03
2018-12-26T21:21:54.928Z,34.60
2018-12-26T21:24:23.382Z,33.00
2018-12-26T21:26:51.837Z,36.00
2018-12-26T21:29:20.296Z,35.73
2018-12-26T21:31:48.854Z,33.97
2018-12-26T21:34:17.295Z,34.93
2018-12-26T21:36:45.769Z,33.63
2018-12-26T21:39:14.225Z,33.33
2018-12-26T21:41:42.708Z,34.63
2018-12-26T21:44:11.160Z,34.40
2018-12-26T21:46:39.631Z,35.57
2018-12-26T21:49:08.083Z,34.67
2018-12-26T21:51:36.557Z,35.47
2018-12-26T21:54:05.021Z,36.23
2018-12-26T21:56:33.651Z,33.70
2018-12-26T21:59:02.165Z,34.20
2018-12-26T22:01:31.168Z,33.17
2018-12-26T22:03:59.613Z,33.30
2018-12-26T22:06:28.102Z,36.40
2018-12-26T22:08:56.553Z,35.10
2018-12-26T22:11:25.031Z,32.77
2018-12-26T22:13:53.490Z,32.80
2018-12-26T22:16:21.955Z,33.80
2018-12-26T22:18:50.404Z,33.07
2018-12-26T22:21:18.875Z,32.10
2018-12-26T22:23:47.354Z,34.50
2018-12-26T22:26:15.825Z,31.63
2018-12-26T22:28:44.279Z,34.20
2018-12-26T22:31:12.742Z,32.37
2018-12-26T22:33:41.209Z,32.97
2018-12-26T22:36:09.667Z,32.00
2018-12-26T22:38:38.146Z,31.47
2018-12-26T22:41:06.593Z,30.93
2018-12-26T22:43:35.072Z,30.97
2018-12-26T22:46:03.522Z,30.63
2018-12-26T22:48:31.986Z,28.93
2018-12-26T22:51:00.455Z,28.67
2018-12-26T22:53:28.943Z,30.70
2018-12-26T22:55:57.389Z,30.57
2018-12-26T22:58:25.853Z,29.87
2018-12-26T23:00:54.302Z,27.73
2018-12-26T23:03:22.750Z,27.63
2018-12-26T23:05:51.260Z,27.20
2018-12-26T23:08:19.682Z,25.67
2018-12-26T23:10:48.167Z,27.53
2018-12-26T23:13:16.626Z,27.60
2018-12-26T23:15:45.125Z,26.53
2018-12-26T23:18:13.583Z,26.53
2018-12-26T23:20:42.056Z,26.17
2018-12-26T23:23:10.498Z,26.53
2018-12-26T23:25:38.978Z,25.17
2018-12-26T23:28:07.494Z,23.80
2018-12-26T23:30:35.958Z,25.20
2018-12-26T23:33:04.725Z,24.90
2018-12-26T23:35:33.201Z,25.70
2018-12-26T23:38:01.653Z,24.17
2018-12-26T23:40:30.126Z,24.70
2018-12-26T23:42:58.572Z,26.33
2018-12-26T23:45:27.011Z,24.87
2018-12-26T23:47:55.512Z,23.30
2018-12-26T23:50:23.991Z,23.60
2018-12-26T23:52:52.450Z,24.47
2018-12-26T23:55:20.902Z,23.83
2018-12-26T23:57:49.364Z,22.60
